createdAt,value
2023-02-02T00:01:01.331Z,0.73
2023-02-02T00:04:04.489Z,0.78
2023-02-02T00:07:07.593Z,0.92
2023-02-02T00:10:11.099Z,0.90
2023-02-02T00:13:14.583Z,0.75
2023-02-02T00:16:39.759Z,0.75
2023-02-02T00:19:42.672Z,0.59
2023-02-02T00:22:45.484Z,0.64
2023-02-02T00:25:51.241Z,0.75
2023-02-02T00:28:54.119Z,0.70
2023-02-02T00:31:58.646Z,0.59
2023-02-02T00:35:01.555Z,0.59
2023-02-02T00:38:04.375Z,0.57
2023-02-02T00:41:07.517Z,0.60
2023-02-02T00:44:28.772Z,0.66
2023-02-02T00:47:31.512Z,0.83
2023-02-02T00:50:34.671Z,0.85
2023-02-02T00:53:38.202Z,0.85
2023-02-02T00:56:41.712Z,0.79
2023-02-02T00:59:44.515Z,0.77
2023-02-02T01:02:47.563Z,0.76
2023-02-02T01:05:52.172Z,0.81
2023-02-02T01:08:55.083Z,0.81
2023-02-02T01:11:58.826Z,0.89
2023-02-02T01:15:02.685Z,0.85
2023-02-02T01:18:07.345Z,0.79
2023-02-02T01:21:12.787Z,0.86
2023-02-02T01:24:15.576Z,0.86
2023-02-02T01:27:18.685Z,1.07
2023-02-02T01:30:21.613Z,0.98
2023-02-02T01:33:25.608Z,0.93
2023-02-02T01:36:28.388Z,0.84
2023-02-02T01:39:34.216Z,0.80
2023-02-02T01:42:37.087Z,0.80
2023-02-02T01:45:39.885Z,0.89
2023-02-02T01:48:47.048Z,0.93
2023-02-02T01:51:59.363Z,0.92
2023-02-02T01:55:08.836Z,1.01
2023-02-02T01:58:17.576Z,1.01
2023-02-02T02:01:20.779Z,0.94
2023-02-02T02:04:25.447Z,0.89
2023-02-02T02:07:28.442Z,0.81
2023-02-02T02:10:31.417Z,0.79
2023-02-02T02:13:56.708Z,0.81
2023-02-02T02:17:25.654Z,0.88
2023-02-02T02:21:09.944Z,0.94
2023-02-02T02:24:54.339Z,0.98
2023-02-02T02:28:25.209Z,0.87
2023-02-02T02:31:53.160Z,0.84
2023-02-02T02:35:17.320Z,0.82
2023-02-02T02:38:30.599Z,0.56
2023-02-02T02:41:37.822Z,0.41
2023-02-02T02:44:42.100Z,0.31
2023-02-02T02:47:45.455Z,0.42
2023-02-02T02:50:48.352Z,0.60
2023-02-02T02:53:51.151Z,0.67
2023-02-02T02:57:09.943Z,0.53
2023-02-02T03:00:35.455Z,0.70
2023-02-02T03:03:55.433Z,0.80
2023-02-02T03:07:05.458Z,0.87
2023-02-02T03:10:12.610Z,0.94
2023-02-02T03:13:16.995Z,0.95
2023-02-02T03:16:19.686Z,1.00
2023-02-02T03:19:22.491Z,1.07
2023-02-02T03:22:25.519Z,1.18
2023-02-02T03:25:28.496Z,1.28
2023-02-02T03:28:32.632Z,1.37
2023-02-02T03:31:35.481Z,1.45
2023-02-02T03:34:43.229Z,1.60
2023-02-02T03:37:46.199Z,1.64
2023-02-02T03:40:49.050Z,1.67
2023-02-02T03:43:51.858Z,1.85
2023-02-02T03:46:55.242Z,1.99
2023-02-02T03:49:58.066Z,2.09
2023-02-02T03:53:00.913Z,2.31
2023-02-02T03:56:04.094Z,2.48
2023-02-02T03:59:07.169Z,2.60
2023-02-02T04:02:09.939Z,2.81
2023-02-02T04:05:12.778Z,2.88
2023-02-02T04:08:15.782Z,3.03
2023-02-02T04:11:19.405Z,3.17
2023-02-02T04:14:22.198Z,3.20
2023-02-02T04:17:25.044Z,3.34
2023-02-02T04:20:27.849Z,3.38
2023-02-02T04:23:31.369Z,3.38
2023-02-02T04:26:34.242Z,3.46
2023-02-02T04:29:37.179Z,3.53
2023-02-02T04:32:40.183Z,3.79
2023-02-02T04:35:43.947Z,3.83
2023-02-02T04:38:50.179Z,3.96
2023-02-02T04:41:52.969Z,4.10
2023-02-02T04:44:55.658Z,4.15
2023-02-02T04:47:58.450Z,4.19
2023-02-02T04:51:03.012Z,4.25
2023-02-02T04:54:07.345Z,4.22
2023-02-02T04:57:10.098Z,4.23
2023-02-02T05:00:18.677Z,4.20
2023-02-02T05:03:21.555Z,4.15
2023-02-02T05:06:24.667Z,4.12
2023-02-02T05:09:27.587Z,4.05
2023-02-02T05:12:30.793Z,3.95
2023-02-02T05:15:33.835Z,3.86
2023-02-02T05:18:36.681Z,3.83
2023-02-02T05:21:39.453Z,3.74
2023-02-02T05:24:42.220Z,3.69
2023-02-02T05:27:46.603Z,3.58
2023-02-02T05:30:49.769Z,3.59
2023-02-02T05:33:52.913Z,3.39
2023-02-02T05:36:55.689Z,3.31
2023-02-02T05:39:58.589Z,3.22
2023-02-02T05:43:01.407Z,3.20
2023-02-02T05:46:08.948Z,3.09
2023-02-02T05:49:14.158Z,3.04
2023-02-02T05:52:21.713Z,2.99
2023-02-02T05:55:24.788Z,2.89
2023-02-02T05:58:28.484Z,2.87
2023-02-02T06:01:31.440Z,2.91
2023-02-02T06:04:34.292Z,2.94
2023-02-02T06:07:37.094Z,2.91
2023-02-02T06:10:42.665Z,2.90
2023-02-02T06:13:46.354Z,3.01
2023-02-02T06:16:49.111Z,3.00
2023-02-02T06:19:51.872Z,3.07
2023-02-02T06:22:54.878Z,3.11
2023-02-02T06:25:57.773Z,3.09
2023-02-02T06:29:00.805Z,3.11
2023-02-02T06:32:04.185Z,3.01
2023-02-02T06:35:08.169Z,3.11
2023-02-02T06:38:11.542Z,3.15
2023-02-02T06:41:14.319Z,3.17
2023-02-02T06:44:19.402Z,3.21
2023-02-02T06:47:22.264Z,3.23
2023-02-02T06:50:25.156Z,3.25
2023-02-02T06:53:28.422Z,3.34
2023-02-02T06:56:31.248Z,3.32
2023-02-02T06:59:43.583Z,3.27
2023-02-02T07:02:47.731Z,3.25
2023-02-02T07:05:51.056Z,3.21
2023-02-02T07:09:03.488Z,3.18
2023-02-02T07:12:10.347Z,3.32
2023-02-02T07:15:18.187Z,3.42
2023-02-02T07:18:21.306Z,3.45
2023-02-02T07:21:26.657Z,3.47
2023-02-02T07:24:29.595Z,3.46
2023-02-02T07:27:34.271Z,3.47
2023-02-02T07:30:37.746Z,3.54
2023-02-02T07:33:42.561Z,3.60
2023-02-02T07:36:45.698Z,3.78
2023-02-02T07:39:48.573Z,3.85
2023-02-02T07:42:51.463Z,3.94
2023-02-02T07:45:54.435Z,4.00
2023-02-02T07:48:58.084Z,4.04
2023-02-02T07:52:01.032Z,4.30
2023-02-02T07:55:14.387Z,4.44
2023-02-02T07:58:17.884Z,4.42
2023-02-02T08:01:23.228Z,4.40
2023-02-02T08:04:26.297Z,4.41
2023-02-02T08:07:29.367Z,4.45
2023-02-02T08:10:32.185Z,4.43
2023-02-02T08:13:35.017Z,4.50
2023-02-02T08:16:37.935Z,4.54
2023-02-02T08:19:40.685Z,4.54
2023-02-02T08:22:43.675Z,4.51
2023-02-02T08:25:46.535Z,4.59
2023-02-02T08:29:03.021Z,4.63
2023-02-02T08:32:06.033Z,4.69
2023-02-02T08:35:09.214Z,4.71
2023-02-02T08:38:12.200Z,4.71
2023-02-02T08:41:18.567Z,4.76
2023-02-02T08:44:21.307Z,4.72
2023-02-02T08:47:30.001Z,4.80
2023-02-02T08:50:34.417Z,4.89
2023-02-02T08:53:38.034Z,4.97
2023-02-02T08:56:40.917Z,4.92
2023-02-02T08:59:43.836Z,4.91
2023-02-02T09:02:51.198Z,4.90
2023-02-02T09:05:56.494Z,4.92
2023-02-02T09:09:01.980Z,4.95
2023-02-02T09:12:05.032Z,4.98
2023-02-02T09:15:08.129Z,4.96
2023-02-02T09:18:11.126Z,4.97
2023-02-02T09:21:16.246Z,4.93
2023-02-02T09:24:19.284Z,5.08
2023-02-02T09:27:22.517Z,5.11
2023-02-02T09:30:25.388Z,5.11
2023-02-02T09:33:28.294Z,5.40
2023-02-02T09:36:32.327Z,5.52
2023-02-02T09:39:35.348Z,5.71
2023-02-02T09:42:44.274Z,6.29
2023-02-02T09:45:58.657Z,7.16
2023-02-02T09:49:11.472Z,7.96
2023-02-02T09:52:20.822Z,10.12
2023-02-02T09:55:30.139Z,10.76
2023-02-02T09:59:02.147Z,10.77
2023-02-02T10:02:22.362Z,10.62
2023-02-02T10:05:30.305Z,10.49
2023-02-02T10:08:46.007Z,10.84
2023-02-02T10:12:17.480Z,10.77
2023-02-02T10:15:39.857Z,11.02
2023-02-02T10:18:56.605Z,10.72
2023-02-02T10:22:20.065Z,11.02
2023-02-02T10:25:26.653Z,12.01
2023-02-02T10:28:44.950Z,11.96
2023-02-02T10:32:06.727Z,12.34
2023-02-02T10:35:27.610Z,13.20
2023-02-02T10:38:53.162Z,14.52
2023-02-02T10:42:34.271Z,15.41
2023-02-02T10:45:39.512Z,16.12
2023-02-02T10:48:46.630Z,16.67
2023-02-02T10:52:08.256Z,17.70
2023-02-02T10:55:14.292Z,18.37
2023-02-02T10:58:39.173Z,18.20
2023-02-02T11:01:43.324Z,17.49
2023-02-02T11:05:07.112Z,17.61
2023-02-02T11:08:13.894Z,17.37
2023-02-02T11:11:38.610Z,15.46
2023-02-02T11:14:47.889Z,14.60
2023-02-02T11:17:51.116Z,13.28
2023-02-02T11:20:54.997Z,11.57
2023-02-02T11:24:23.988Z,10.68
2023-02-02T11:27:33.511Z,10.52
2023-02-02T11:30:38.534Z,10.02
2023-02-02T11:33:41.324Z,10.21
2023-02-02T11:37:00.431Z,10.13
2023-02-02T11:40:30.181Z,10.07
2023-02-02T11:43:52.535Z,9.50
2023-02-02T11:46:56.947Z,9.67
2023-02-02T11:50:02.726Z,9.92
2023-02-02T11:53:07.064Z,9.87
2023-02-02T11:56:19.240Z,10.82
2023-02-02T11:59:34.966Z,10.83
2023-02-02T12:02:45.361Z,10.82
2023-02-02T12:05:50.093Z,11.41
2023-02-02T12:08:58.499Z,11.05
2023-02-02T12:12:30.934Z,11.57
2023-02-02T12:15:55.459Z,11.19
2023-02-02T12:19:24.652Z,11.14
2023-02-02T12:22:36.370Z,10.54
2023-02-02T12:26:27.362Z,10.69
2023-02-02T12:29:59.347Z,11.09
2023-02-02T12:33:08.416Z,12.35
2023-02-02T12:36:14.133Z,13.46
2023-02-02T12:39:30.564Z,15.14
2023-02-02T12:42:51.552Z,13.80
2023-02-02T12:46:21.632Z,12.01
2023-02-02T12:50:03.019Z,11.48
2023-02-02T12:53:30.712Z,11.60
2023-02-02T12:56:40.244Z,12.38
2023-02-02T13:00:25.012Z,12.06
2023-02-02T13:03:35.158Z,10.77
2023-02-02T13:06:53.989Z,10.38
2023-02-02T13:10:28.653Z,9.88
2023-02-02T13:13:37.700Z,9.66
2023-02-02T13:16:48.614Z,9.11
2023-02-02T13:19:56.428Z,8.86
2023-02-02T13:23:03.536Z,8.59
2023-02-02T13:26:20.158Z,8.73
2023-02-02T13:29:50.737Z,8.69
2023-02-02T13:32:58.327Z,8.51
2023-02-02T13:36:06.307Z,8.70
2023-02-02T13:39:45.243Z,8.54
2023-02-02T13:43:04.904Z,8.31
2023-02-02T13:46:24.123Z,8.03
2023-02-02T13:49:44.893Z,8.05
2023-02-02T13:53:02.851Z,7.90
2023-02-02T13:56:49.100Z,7.73
2023-02-02T13:59:55.286Z,7.56
2023-02-02T14:03:03.469Z,7.47
2023-02-02T14:06:17.109Z,7.35
2023-02-02T14:09:20.415Z,7.33
2023-02-02T14:12:33.183Z,7.23
2023-02-02T14:15:44.699Z,7.04
2023-02-02T14:18:51.048Z,7.03
2023-02-02T14:22:01.479Z,7.05
2023-02-02T14:25:24.897Z,7.06
2023-02-02T14:28:43.463Z,6.95
2023-02-02T14:31:55.238Z,6.88
2023-02-02T14:35:00.420Z,6.82
2023-02-02T14:38:14.708Z,6.68
2023-02-02T14:42:06.669Z,6.62
2023-02-02T14:45:21.989Z,6.59
2023-02-02T14:48:25.797Z,6.48
2023-02-02T14:51:32.199Z,6.49
2023-02-02T14:54:40.105Z,6.42
2023-02-02T14:57:43.051Z,6.36
2023-02-02T15:01:05.674Z,6.26
2023-02-02T15:04:21.216Z,6.24
2023-02-02T15:07:23.894Z,6.20
2023-02-02T15:10:54.130Z,6.06
2023-02-02T15:14:07.192Z,6.06
2023-02-02T15:17:31.271Z,6.01
2023-02-02T15:20:44.805Z,5.90
2023-02-02T15:23:47.939Z,5.87
2023-02-02T15:26:54.709Z,5.82
2023-02-02T15:30:03.849Z,5.75
2023-02-02T15:33:28.124Z,5.71
2023-02-02T15:36:37.768Z,5.61
2023-02-02T15:39:43.524Z,5.59
2023-02-02T15:42:54.243Z,5.48
2023-02-02T15:46:04.879Z,5.46
2023-02-02T15:49:36.044Z,5.48
2023-02-02T15:52:47.471Z,5.40
2023-02-02T15:55:50.751Z,5.32
2023-02-02T15:58:56.347Z,5.31
2023-02-02T16:02:11.749Z,5.22
2023-02-02T16:05:36.728Z,5.14
2023-02-02T16:08:41.224Z,5.15
2023-02-02T16:11:45.911Z,5.11
2023-02-02T16:14:54.346Z,5.02
2023-02-02T16:18:00.735Z,4.98
2023-02-02T16:21:16.239Z,5.00
2023-02-02T16:24:41.810Z,5.03
2023-02-02T16:27:47.558Z,5.07
2023-02-02T16:30:52.597Z,4.94
2023-02-02T16:33:57.161Z,4.89
2023-02-02T16:37:15.311Z,4.79
2023-02-02T16:40:29.731Z,4.83
2023-02-02T16:43:33.730Z,4.82
2023-02-02T16:46:44.342Z,4.79
2023-02-02T16:49:47.232Z,4.79
2023-02-02T16:53:03.658Z,4.86
2023-02-02T16:56:07.932Z,4.87
2023-02-02T16:59:25.539Z,4.86
2023-02-02T17:02:41.164Z,4.87
2023-02-02T17:05:54.540Z,4.84
2023-02-02T17:08:57.351Z,4.85
2023-02-02T17:12:32.135Z,4.88
2023-02-02T17:15:37.143Z,4.84
2023-02-02T17:18:40.397Z,4.82
2023-02-02T17:21:43.503Z,4.73
2023-02-02T17:24:48.302Z,4.74
2023-02-02T17:27:51.421Z,4.65
2023-02-02T17:31:00.674Z,4.64
2023-02-02T17:34:04.436Z,4.60
2023-02-02T17:37:07.730Z,4.66
2023-02-02T17:40:18.214Z,4.63
2023-02-02T17:43:21.397Z,4.57
2023-02-02T17:46:24.535Z,4.57
2023-02-02T17:49:27.436Z,4.59
2023-02-02T17:52:30.291Z,4.61
2023-02-02T17:55:38.954Z,4.55
2023-02-02T17:58:42.396Z,4.58
2023-02-02T18:01:46.506Z,4.54
2023-02-02T18:04:49.296Z,4.51
2023-02-02T18:07:55.014Z,4.48
2023-02-02T18:10:59.573Z,4.51
2023-02-02T18:14:02.622Z,4.50
2023-02-02T18:17:08.368Z,4.52
2023-02-02T18:20:15.231Z,4.49
2023-02-02T18:23:19.404Z,4.40
2023-02-02T18:26:23.296Z,4.30
2023-02-02T18:29:26.376Z,4.25
2023-02-02T18:32:29.496Z,4.24
2023-02-02T18:35:32.245Z,4.26
2023-02-02T18:38:35.085Z,4.26
2023-02-02T18:41:38.162Z,4.24
2023-02-02T18:44:42.944Z,4.19
2023-02-02T18:47:45.858Z,4.16
2023-02-02T18:50:48.977Z,4.10
2023-02-02T18:53:51.956Z,4.14
2023-02-02T18:56:54.919Z,4.18
2023-02-02T18:59:57.755Z,4.16
2023-02-02T19:03:00.828Z,4.13
2023-02-02T19:06:23.357Z,4.18
2023-02-02T19:09:26.414Z,4.09
2023-02-02T19:12:29.458Z,4.01
2023-02-02T19:15:39.446Z,4.05
2023-02-02T19:18:44.142Z,4.03
2023-02-02T19:21:47.128Z,4.02
2023-02-02T19:24:52.967Z,3.93
2023-02-02T19:27:55.822Z,3.83
2023-02-02T19:31:01.572Z,3.74
2023-02-02T19:34:13.687Z,3.63
2023-02-02T19:37:28.676Z,3.60
2023-02-02T19:40:31.712Z,3.44
2023-02-02T19:43:36.635Z,3.33
2023-02-02T19:46:43.898Z,3.31
2023-02-02T19:49:47.048Z,3.24
2023-02-02T19:52:51.117Z,3.22
2023-02-02T19:55:54.755Z,3.28
2023-02-02T19:58:59.168Z,3.17
2023-02-02T20:02:41.549Z,3.08
2023-02-02T20:05:47.494Z,3.01
2023-02-02T20:08:51.616Z,2.95
2023-02-02T20:11:56.683Z,2.81
2023-02-02T20:14:59.707Z,2.70
2023-02-02T20:18:14.565Z,2.73
2023-02-02T20:21:34.491Z,2.61
2023-02-02T20:24:43.190Z,2.61
2023-02-02T20:27:46.308Z,2.57
2023-02-02T20:30:49.454Z,2.72
2023-02-02T20:33:55.492Z,2.70
2023-02-02T20:37:14.180Z,2.73
2023-02-02T20:40:20.153Z,2.71
2023-02-02T20:43:23.237Z,2.76
2023-02-02T20:46:26.104Z,2.74
2023-02-02T20:49:32.015Z,2.74
2023-02-02T20:52:35.573Z,2.74
2023-02-02T20:55:38.531Z,2.68
2023-02-02T20:58:41.347Z,2.64
2023-02-02T21:01:44.548Z,2.52
2023-02-02T21:04:48.839Z,2.49
2023-02-02T21:07:54.998Z,2.57
2023-02-02T21:10:57.794Z,2.52
2023-02-02T21:14:01.036Z,2.56
2023-02-02T21:17:14.384Z,2.57
2023-02-02T21:20:18.183Z,2.54
2023-02-02T21:23:22.032Z,2.60
2023-02-02T21:26:29.990Z,2.55
2023-02-02T21:29:33.497Z,2.57
2023-02-02T21:32:36.378Z,2.54
2023-02-02T21:35:39.252Z,2.60
2023-02-02T21:38:42.143Z,2.64
2023-02-02T21:41:45.433Z,2.62
2023-02-02T21:44:54.348Z,2.66
2023-02-02T21:48:05.319Z,2.56
2023-02-02T21:51:29.177Z,2.50
2023-02-02T21:54:37.714Z,2.44
2023-02-02T21:57:42.333Z,2.36
2023-02-02T22:00:45.748Z,2.32
2023-02-02T22:03:50.113Z,2.23
2023-02-02T22:07:09.519Z,2.21
2023-02-02T22:10:34.148Z,2.14
2023-02-02T22:13:36.843Z,2.05
2023-02-02T22:16:44.096Z,2.06
2023-02-02T22:19:46.968Z,2.09
2023-02-02T22:22:51.537Z,2.08
2023-02-02T22:25:56.413Z,2.00
2023-02-02T22:28:59.488Z,2.16
2023-02-02T22:32:02.495Z,2.14
2023-02-02T22:35:05.733Z,2.09
2023-02-02T22:38:09.618Z,2.10
2023-02-02T22:41:12.458Z,2.00
2023-02-02T22:44:15.511Z,2.10
2023-02-02T22:47:18.213Z,2.15
2023-02-02T22:50:26.794Z,2.05
2023-02-02T22:53:29.771Z,2.11
2023-02-02T22:56:32.696Z,2.16
2023-02-02T22:59:35.890Z,2.10
2023-02-02T23:02:40.916Z,1.97
2023-02-02T23:05:43.792Z,1.87
2023-02-02T23:08:46.838Z,1.95
2023-02-02T23:11:49.965Z,1.96
2023-02-02T23:14:52.838Z,1.95
2023-02-02T23:17:55.654Z,2.03
2023-02-02T23:20:58.729Z,2.13
2023-02-02T23:24:01.612Z,2.08
2023-02-02T23:27:04.927Z,2.11
2023-02-02T23:30:09.572Z,2.23
2023-02-02T23:33:12.342Z,2.16
2023-02-02T23:36:15.213Z,2.18
2023-02-02T23:39:18.110Z,2.17
2023-02-02T23:42:21.205Z,2.09
2023-02-02T23:45:24.078Z,2.18
2023-02-02T23:48:26.969Z,2.12
2023-02-02T23:51:30.012Z,1.97
2023-02-02T23:54:33.845Z,1.90
2023-02-02T23:57:37.891Z,1.85
